Time;durP1;ratioP1;P1;durP2;ratioP2;P2;SDS_P1;SDS_P2;PMS_P1;PMS_P2;Temp;Humidity;BMP_temperature;BMP_pressure;BME280_temperature;BME280_humidity;BME280_pressure;Samples;Min_cycle;Max_cycle;Signal;HPM_P1;HPM_P2
2023/03/09 00:02:00;;;;;;;10.00;6.70;;;;;;;-0.60;99.51;97339.75;442705;1251;142512;-67
2023/03/09 00:12:06;;;;;;;10.50;7.50;;;;;;;-0.63;99.57;97338.57;437631;1251;142357;-66
2023/03/09 00:22:13;;;;;;;6.40;5.10;;;;;;;-0.67;99.41;97331.74;435116;1256;142812;-66
2023/03/09 00:32:19;;;;;;;6.40;5.00;;;;;;;-0.77;99.73;97326.77;433936;1251;142379;-65
2023/03/09 00:42:24;;;;;;;9.80;5.80;;;;;;;-0.82;99.67;97330.49;435978;1254;141004;-66
2023/03/09 00:52:30;;;;;;;8.00;6.10;;;;;;;-0.86;99.82;97335.86;438620;1251;142303;-66
2023/03/09 01:02:36;;;;;;;6.60;5.90;;;;;;;-0.90;99.88;97336.41;443707;1251;142543;-67
2023/03/09 01:12:42;;;;;;;6.50;5.40;;;;;;;-0.93;99.73;97332.25;436105;1251;141634;-67
2023/03/09 01:22:48;;;;;;;6.40;5.20;;;;;;;-0.98;99.80;97331.13;434456;1252;201517;-67
2023/03/09 01:32:54;;;;;;;10.50;7.20;;;;;;;-1.04;99.89;97329.73;436012;1253;141999;-66
2023/03/09 01:43:01;;;;;;;9.60;6.90;;;;;;;-1.07;99.94;97323.04;434927;1255;142233;-67
2023/03/09 01:53:11;;;;;;;8.40;7.10;;;;;;;-1.08;99.99;97318.46;437263;1251;141335;-67
2023/03/09 02:03:20;;;;;;;7.60;6.50;;;;;;;-1.04;99.96;97316.15;446293;1251;142455;-66
2023/03/09 02:13:31;;;;;;;7.80;6.90;;;;;;;-1.05;99.97;97324.34;434961;1251;142650;-66
2023/03/09 02:23:45;;;;;;;7.70;6.70;;;;;;;-1.10;99.82;97320.45;439750;1252;142278;-66
2023/03/09 02:33:50;;;;;;;8.20;7.00;;;;;;;-1.14;99.80;97315.87;438695;1253;142083;-65
2023/03/09 02:43:58;;;;;;;7.90;6.90;;;;;;;-1.18;99.95;97307.13;442565;1251;141378;-65
2023/03/09 02:54:04;;;;;;;8.40;7.50;;;;;;;-1.23;99.94;97314.92;440484;1253;141485;-66
2023/03/09 03:04:10;;;;;;;8.00;6.50;;;;;;;-1.23;99.96;97322.33;436100;1251;145311;-67
2023/03/09 03:14:16;;;;;;;7.30;6.20;;;;;;;-1.25;99.88;97326.04;438844;1252;141784;-66
2023/03/09 03:24:22;;;;;;;9.70;7.70;;;;;;;-1.26;99.90;97336.04;436130;1253;141952;-65
2023/03/09 03:34:27;;;;;;;8.60;6.60;;;;;;;-1.25;99.80;97332.06;446735;1251;143077;-67
2023/03/09 03:44:33;;;;;;;9.00;7.40;;;;;;;-1.26;99.56;97312.02;438510;1253;141706;-66
2023/03/09 03:54:39;;;;;;;13.10;10.10;;;;;;;-1.30;99.63;97319.92;438899;1251;142406;-66
2023/03/09 04:04:44;;;;;;;9.80;7.70;;;;;;;-1.32;99.71;97333.42;435616;1253;141885;-66
2023/03/09 04:14:50;;;;;;;9.90;8.20;;;;;;;-1.33;99.58;97344.79;438147;1252;141359;-66
2023/03/09 04:24:56;;;;;;;9.70;8.40;;;;;;;-1.32;99.79;97336.36;441302;1251;143829;-66
2023/03/09 04:35:01;;;;;;;11.40;9.00;;;;;;;-1.36;99.77;97340.18;438567;1252;141399;-64
2023/03/09 04:45:11;;;;;;;7.60;6.70;;;;;;;-1.37;99.62;97333.86;437321;1253;142100;-67
2023/03/09 04:55:17;;;;;;;12.40;7.50;;;;;;;-1.35;99.93;97332.75;436909;1252;141964;-67
2023/03/09 05:05:21;;;;;;;;;;;;;;;-1.29;99.86;97332.45;443225;1251;142871;-66
2023/03/09 05:15:27;;;;;;;7.50;6.20;;;;;;;-1.26;99.90;97326.44;434609;1254;128876;-67
2023/03/09 05:25:33;;;;;;;7.10;6.10;;;;;;;-1.29;100.00;97328.98;439865;1250;144350;-67
2023/03/09 05:35:39;;;;;;;9.30;7.00;;;;;;;-1.30;99.99;97334.84;449197;1251;142680;-67
2023/03/09 05:45:44;;;;;;;7.10;6.00;;;;;;;-1.17;100.00;97332.34;439836;1252;141331;-67
2023/03/09 05:55:54;;;;;;;10.50;7.50;;;;;;;-1.20;99.96;97324.20;435084;1250;141190;-67
2023/03/09 06:06:05;;;;;;;6.40;5.80;;;;;;;-1.19;100.00;97325.39;447969;1252;142666;-65
2023/03/09 06:16:15;;;;;;;7.30;5.60;;;;;;;-1.17;99.94;97324.77;449538;1252;142350;-64
2023/03/09 06:26:20;;;;;;;6.50;5.90;;;;;;;-1.14;99.77;97331.48;450293;1252;143339;-65
2023/03/09 06:36:26;;;;;;;8.10;6.60;;;;;;;-1.05;99.82;97332.55;450354;1251;143226;-64
2023/03/09 06:46:32;;;;;;;10.50;7.40;;;;;;;-0.96;99.43;97332.41;449466;1252;143828;-64
2023/03/09 06:56:38;;;;;;;10.00;6.90;;;;;;;-0.90;99.56;97330.07;450355;1251;142514;-64
2023/03/09 07:06:44;;;;;;;8.40;6.80;;;;;;;-0.93;99.86;97327.09;450095;1252;142446;-64
2023/03/09 07:16:54;;;;;;;9.50;7.90;;;;;;;-0.87;100.00;97320.45;449695;1252;195487;-64
2023/03/09 07:26:59;;;;;;;8.10;6.60;;;;;;;-0.72;100.00;97320.14;450430;1251;143312;-64
2023/03/09 07:37:05;;;;;;;8.50;6.20;;;;;;;-0.64;99.98;97326.60;449595;1251;143648;-65
2023/03/09 07:47:11;;;;;;;8.10;6.40;;;;;;;-0.60;99.99;97322.61;450333;1253;143268;-64
2023/03/09 07:57:18;;;;;;;7.20;6.00;;;;;;;-0.51;100.00;97336.91;450449;1253;142602;-64
2023/03/09 08:07:24;;;;;;;6.90;5.60;;;;;;;-0.56;100.00;97342.50;449285;1251;142319;-64
2023/03/09 08:17:30;;;;;;;9.90;6.20;;;;;;;-0.53;99.92;97337.16;450520;1251;141888;-64
2023/03/09 08:27:41;;;;;;;9.30;7.70;;;;;;;-0.42;99.59;97333.79;450413;1252;142398;-65
2023/03/09 08:37:47;;;;;;;9.90;6.60;;;;;;;-0.09;99.26;97333.88;449658;1252;143657;-64
2023/03/09 08:47:53;;;;;;;9.90;7.50;;;;;;;0.05;98.44;97333.95;450470;1251;141778;-64
2023/03/09 08:57:58;;;;;;;9.50;7.40;;;;;;;0.14;98.18;97335.67;449628;1252;143125;-64
2023/03/09 09:08:04;;;;;;;7.70;6.10;;;;;;;0.60;97.34;97343.85;450355;1250;142367;-64
2023/03/09 09:18:10;;;;;;;10.40;7.90;;;;;;;1.22;96.21;97351.89;450391;1253;142469;-64
2023/03/09 09:28:16;;;;;;;8.90;6.90;;;;;;;0.96;94.29;97369.64;449676;1251;142362;-64
2023/03/09 09:38:21;;;;;;;10.10;6.50;;;;;;;0.62;94.93;97372.86;450492;1251;142885;-64
2023/03/09 09:48:28;;;;;;;9.80;6.80;;;;;;;0.94;95.12;97375.95;450474;1251;142003;-65
2023/03/09 09:58:39;;;;;;;6.70;5.50;;;;;;;1.16;94.50;97384.14;449704;1253;142400;-67
2023/03/09 10:08:50;;;;;;;9.80;7.30;;;;;;;1.17;95.15;97390.60;450412;1253;142492;-66
2023/03/09 10:18:59;;;;;;;7.60;6.80;;;;;;;0.67;98.13;97401.14;449673;1252;142342;-65
2023/03/09 10:29:13;;;;;;;6.90;6.20;;;;;;;0.47;98.01;97409.52;450483;1253;141626;-66
2023/03/09 10:39:19;;;;;;;8.50;7.00;;;;;;;0.60;96.80;97422.53;450399;1253;141704;-65
2023/03/09 10:49:25;;;;;;;9.60;7.00;;;;;;;0.69;95.87;97434.27;447202;1253;144893;-65
2023/03/09 10:59:32;;;;;;;9.90;7.00;;;;;;;0.62;95.59;97451.39;450112;1253;141856;-64
2023/03/09 11:09:48;;;;;;;7.20;6.50;;;;;;;0.61;95.80;97455.74;450332;1252;142716;-65
2023/03/09 11:20:20;;;;;;;8.50;6.50;;;;;;;0.60;95.48;97466.43;449924;1252;211525;-65
2023/03/09 11:30:28;;;;;;;7.10;6.40;;;;;;;0.72;95.23;97481.14;450463;1252;141415;-65
2023/03/09 11:40:38;;;;;;;8.30;7.30;;;;;;;0.71;95.32;97498.91;449737;1251;141306;-66
2023/03/09 11:50:57;;;;;;;9.40;7.60;;;;;;;0.69;94.97;97507.46;450405;1254;141343;-65
2023/03/09 12:01:16;;;;;;;9.30;8.40;;;;;;;0.63;95.04;97523.62;446764;1251;142840;-65
2023/03/09 12:11:28;;;;;;;9.80;8.80;;;;;;;0.59;95.05;97530.55;446120;1251;141258;-66
2023/03/09 12:21:36;;;;;;;8.20;7.30;;;;;;;0.65;95.38;97545.55;450452;1254;142322;-66
2023/03/09 12:31:42;;;;;;;8.10;7.30;;;;;;;1.12;95.02;97574.43;449660;1253;142099;-66
2023/03/09 12:42:02;;;;;;;10.00;8.70;;;;;;;1.37;94.14;97569.06;450422;1253;141981;-66
2023/03/09 12:52:43;;;;;;;8.80;7.90;;;;;;;1.74;93.43;97574.27;447563;1253;141716;-65
2023/03/09 13:02:54;;;;;;;9.60;8.50;;;;;;;1.57;92.67;97617.20;450358;1254;142281;-66
2023/03/09 13:13:34;;;;;;;11.30;8.30;;;;;;;1.36;92.28;97637.52;449624;1251;141946;-65
2023/03/09 13:23:40;;;;;;;8.40;7.60;;;;;;;0.90;92.13;97679.71;450346;1252;142855;-65
2023/03/09 13:33:47;;;;;;;7.10;6.30;;;;;;;0.54;92.56;97714.91;450394;1254;142189;-65
2023/03/09 13:43:55;;;;;;;7.70;6.90;;;;;;;0.41;93.13;97726.95;449975;1253;197695;-65
2023/03/09 13:54:02;;;;;;;8.10;6.90;;;;;;;0.60;93.27;97756.77;450407;1253;143956;-65
2023/03/09 14:04:17;;;;;;;8.20;7.00;;;;;;;0.56;93.15;97780.58;449435;1251;140988;-66
2023/03/09 14:14:26;;;;;;;7.50;6.70;;;;;;;0.64;93.35;97789.83;450288;1251;186578;-65
2023/03/09 14:24:35;;;;;;;7.50;6.70;;;;;;;0.70;93.67;97804.33;438632;1253;141252;-66
2023/03/09 14:34:41;;;;;;;7.70;7.00;;;;;;;0.50;93.35;97812.55;449414;1253;141593;-65
2023/03/09 14:44:59;;;;;;;8.90;7.60;;;;;;;0.35;93.38;97822.77;450266;1251;142745;-65
2023/03/09 14:55:13;;;;;;;9.20;7.40;;;;;;;0.08;93.72;97819.98;449524;1251;142146;-66
2023/03/09 15:05:21;;;;;;;7.40;5.80;;;;;;;-0.13;93.75;97817.06;450184;1251;140942;-66
2023/03/09 15:15:28;;;;;;;7.70;6.70;;;;;;;-0.09;93.93;97825.46;450115;1252;145131;-65
2023/03/09 15:25:34;;;;;;;8.60;6.40;;;;;;;-0.07;93.69;97855.14;448743;1253;142900;-65
2023/03/09 15:35:43;;;;;;;10.90;7.70;;;;;;;-0.28;93.54;97874.20;437325;1253;142086;-65
2023/03/09 15:45:50;;;;;;;8.30;6.50;;;;;;;-0.49;93.81;97858.13;449356;1254;141714;-65
2023/03/09 15:56:02;;;;;;;8.50;7.20;;;;;;;-0.58;94.02;97868.36;434985;1254;141965;-65
2023/03/09 16:06:08;;;;;;;11.00;8.90;;;;;;;-0.74;94.40;97872.34;450203;1251;141754;-64
2023/03/09 16:16:16;;;;;;;9.90;8.60;;;;;;;-0.81;94.69;97884.52;449332;1251;143396;-64
2023/03/09 16:26:23;;;;;;;9.70;8.60;;;;;;;-0.96;94.75;97909.20;442112;1251;142142;-65
2023/03/09 16:36:30;;;;;;;10.20;8.60;;;;;;;-1.09;95.13;97932.78;450147;1251;143224;-65
2023/03/09 16:46:36;;;;;;;11.10;8.50;;;;;;;-1.15;95.12;97935.29;449502;1251;143288;-65
2023/03/09 16:56:41;;;;;;;10.40;7.50;;;;;;;-1.24;95.63;97932.07;450258;1251;199126;-65
2023/03/09 17:06:47;;;;;;;11.20;7.90;;;;;;;-1.33;95.32;97941.52;440895;1252;142190;-63
2023/03/09 17:16:52;;;;;;;;;;;;;;;-1.35;95.18;97966.84;444961;1253;209401;-64
2023/03/09 17:26:58;;;;;;;10.60;8.40;;;;;;;-1.37;95.15;97984.44;450371;1251;129658;-64
2023/03/09 17:37:05;;;;;;;11.30;8.70;;;;;;;-1.35;95.13;97993.98;449458;1251;142598;-64
2023/03/09 17:47:11;;;;;;;9.60;7.00;;;;;;;-1.31;94.83;98018.54;450284;1251;145405;-65
2023/03/09 17:57:17;;;;;;;11.50;8.60;;;;;;;-1.32;94.68;98024.92;450304;1251;141659;-66
2023/03/09 18:07:22;;;;;;;13.90;9.90;;;;;;;-1.33;94.73;98007.64;442072;1251;141773;-64
2023/03/09 18:17:28;;;;;;;12.40;8.50;;;;;;;-1.39;94.92;98015.25;433704;1256;143060;-64
2023/03/09 18:27:34;;;;;;;10.70;8.90;;;;;;;-1.49;95.30;98029.04;443329;1252;142325;-64
2023/03/09 18:37:39;;;;;;;10.60;9.00;;;;;;;-1.53;95.21;98019.56;449332;1251;143891;-64
2023/03/09 18:47:45;;;;;;;14.80;10.20;;;;;;;-1.54;95.87;97999.89;450243;1251;143835;-64
2023/03/09 18:57:52;;;;;;;12.10;9.20;;;;;;;-1.56;96.25;97992.75;448548;1252;144274;-65
2023/03/09 19:07:58;;;;;;;16.70;11.00;;;;;;;-1.54;96.47;98003.50;450250;1252;142274;-65
2023/03/09 19:18:06;;;;;;;21.80;11.60;;;;;;;-1.62;97.04;98014.77;450138;1251;142473;-66
2023/03/09 19:28:12;;;;;;;14.60;10.50;;;;;;;-1.62;97.23;98004.12;445342;1250;142510;-65
2023/03/09 19:38:17;;;;;;;12.30;10.00;;;;;;;-1.62;97.65;98018.71;441156;1251;141866;-65
2023/03/09 19:48:24;;;;;;;17.90;12.10;;;;;;;-1.62;97.64;98006.71;450066;1251;141260;-66
2023/03/09 19:58:28;;;;;;;;;;;;;;;-1.65;98.03;97995.50;444803;1252;142262;-67
2023/03/09 20:08:34;;;;;;;14.90;12.50;;;;;;;-1.68;98.70;97996.48;437566;1253;127377;-73
2023/03/09 20:18:40;;;;;;;17.30;14.00;;;;;;;-1.68;98.98;98001.28;439739;1253;141409;-75
2023/03/09 20:28:47;;;;;;;23.30;15.40;;;;;;;-1.68;99.37;98002.84;437093;1251;142337;-75
2023/03/09 20:38:52;;;;;;;20.70;14.40;;;;;;;-1.65;99.69;97987.64;437826;1252;144055;-74
2023/03/09 20:48:59;;;;;;;23.60;15.80;;;;;;;-1.65;100.00;97973.36;437064;1254;143313;-74
2023/03/09 20:59:05;;;;;;;22.60;15.70;;;;;;;-1.58;100.00;97965.88;450072;1251;143259;-75
2023/03/09 21:09:11;;;;;;;24.50;17.80;;;;;;;-1.47;100.00;97962.55;446983;1252;142456;-73
2023/03/09 21:19:18;;;;;;;24.30;17.80;;;;;;;-1.42;100.00;97949.61;437210;1251;142535;-73
2023/03/09 21:29:24;;;;;;;24.50;17.80;;;;;;;-1.46;100.00;97948.91;445783;1251;142704;-74
2023/03/09 21:39:29;;;;;;;28.40;18.70;;;;;;;-1.45;100.00;97944.77;437512;1252;142016;-73
2023/03/09 21:49:35;;;;;;;23.30;19.30;;;;;;;-1.47;100.00;97936.08;437008;1251;142432;-72
2023/03/09 21:59:42;;;;;;;24.40;18.00;;;;;;;-1.44;100.00;97915.02;447753;1251;199840;-74
2023/03/09 22:09:48;;;;;;;29.50;17.70;;;;;;;-1.35;100.00;97909.86;443060;1251;141957;-73
2023/03/09 22:19:59;;;;;;;27.80;19.10;;;;;;;-1.31;100.00;97892.84;437234;1253;142125;-74
2023/03/09 22:30:10;;;;;;;23.10;17.40;;;;;;;-1.29;100.00;97872.69;438557;1253;141381;-75
2023/03/09 22:40:17;;;;;;;23.20;17.30;;;;;;;-1.27;100.00;97851.98;438035;1252;141437;-73
2023/03/09 22:50:23;;;;;;;22.20;16.40;;;;;;;-1.27;100.00;97846.52;437443;1251;142172;-73
2023/03/09 23:00:30;;;;;;;29.60;17.90;;;;;;;-1.25;100.00;97845.23;437809;1252;144595;-74
2023/03/09 23:10:38;;;;;;;;;;;;;;;-1.24;100.00;97827.29;437349;1251;144189;-72
2023/03/09 23:20:45;;;;;;;25.30;16.70;;;;;;;-1.22;100.00;97811.95;437103;1253;145334;-72
2023/03/09 23:30:51;;;;;;;22.10;16.10;;;;;;;-1.19;100.00;97797.90;436971;1252;142433;-71
2023/03/09 23:40:57;;;;;;;24.30;16.80;;;;;;;-1.17;100.00;97789.73;436020;1253;143673;-70
2023/03/09 23:51:08;;;;;;;23.90;16.50;;;;;;;-1.14;100.00;97780.00;437999;1251;143339;-72
